Time;durP1;ratioP1;P1;durP2;ratioP2;P2;SDS_P1;SDS_P2;PMS_P1;PMS_P2;Temp;Humidity;BMP_temperature;BMP_pressure;BME280_temperature;BME280_humidity;BME280_pressure;Samples;Min_cycle;Max_cycle;Signal;HPM_P1;HPM_P2
2022/06/08 00:01:59;;;;;;;11.82;6.00;;;;;;;17.05;74.14;99898.25;10416671;28;20041;-82
2022/06/08 00:07:00;;;;;;;13.15;6.47;;;;;;;16.65;74.47;99869.91;10416177;28;20037;-81
2022/06/08 00:12:02;;;;;;;16.52;7.03;;;;;;;16.21;75.47;99795.81;10416232;28;20041;-82
2022/06/08 00:17:04;;;;;;;9.38;5.35;;;;;;;17.05;76.34;99933.16;10415636;28;20099;-82
2022/06/08 00:22:05;;;;;;;8.32;4.07;;;;;;;16.78;76.21;99898.53;10415489;28;20045;-81
2022/06/08 00:27:06;;;;;;;8.05;3.55;;;;;;;16.76;77.05;99895.22;10416536;28;20120;-82
2022/06/08 00:32:07;;;;;;;29.92;5.95;;;;;;;16.90;77.17;99938.84;10415206;28;20486;-81
2022/06/08 00:37:08;;;;;;;20.77;5.72;;;;;;;16.07;76.97;99821.91;10415083;28;20517;-82
2022/06/08 00:42:13;;;;;;;12.52;4.78;;;;;;;15.86;78.69;99785.56;10414648;28;20049;-82
2022/06/08 00:47:22;;;;;;;20.02;6.10;;;;;;;16.20;79.67;99858.50;10415172;28;20044;-81
2022/06/08 00:52:23;;;;;;;7.47;3.60;;;;;;;16.45;78.45;99893.38;10414670;28;20041;-82
2022/06/08 00:57:28;;;;;;;9.07;4.03;;;;;;;16.39;79.49;99902.28;10415078;28;20133;-81
2022/06/08 01:02:28;;;;;;;8.75;4.07;;;;;;;16.33;79.48;99903.13;10414241;28;20087;-82
2022/06/08 01:07:29;;;;;;;149.50;12.43;;;;;;;16.13;79.81;99873.81;10390033;28;20456;-81
2022/06/08 01:12:30;;;;;;;90.60;8.73;;;;;;;16.39;79.13;99918.34;10398249;28;20076;-81
2022/06/08 01:17:31;;;;;;;11.73;5.07;;;;;;;16.23;79.52;99911.66;10414141;28;20080;-82
2022/06/08 01:22:32;;;;;;;10.70;4.28;;;;;;;16.40;79.24;99936.09;10428616;28;20127;-82
2022/06/08 01:27:52;;;;;;;9.18;4.35;;;;;;;15.79;81.39;99832.16;10413437;28;20122;-82
2022/06/08 01:32:56;;;;;;;28.30;5.97;;;;;;;16.38;80.23;99939.00;10429069;28;20067;-81
2022/06/08 01:38:08;;;;;;;68.13;9.02;;;;;;;16.39;80.24;99948.69;10412962;28;20084;-81
2022/06/08 01:43:44;;;;;;;50.38;6.57;;;;;;;16.41;79.30;99943.91;10412516;28;20049;-82
2022/06/08 01:48:53;;;;;;;33.40;6.20;;;;;;;16.31;78.68;99932.84;10411140;28;20051;-82
2022/06/08 01:54:12;;;;;;;42.38;7.15;;;;;;;16.40;77.24;99941.47;10412134;28;20073;-82
2022/06/08 01:59:38;;;;;;;24.25;5.82;;;;;;;16.41;78.85;99922.47;10412429;28;20069;-82
2022/06/08 02:04:50;;;;;;;38.65;6.63;;;;;;;16.69;79.10;99945.38;10412233;28;20115;-81
2022/06/08 02:10:14;;;;;;;16.85;5.90;;;;;;;15.59;77.03;99754.59;10411941;28;20474;-82
2022/06/08 02:15:26;;;;;;;23.52;5.43;;;;;;;17.13;77.53;99951.66;10411676;28;20042;-81
2022/06/08 02:20:53;;;;;;;12.68;4.88;;;;;;;17.70;76.41;99967.59;10419953;28;20041;-80
2022/06/08 02:25:56;;;;;;;11.05;4.60;;;;;;;18.72;72.57;99959.66;10419118;28;20111;-82
2022/06/08 02:31:28;;;;;;;11.95;4.90;;;;;;;19.86;69.54;99955.84;10420723;28;20037;-82
2022/06/08 02:36:35;;;;;;;12.65;4.63;;;;;;;19.90;68.34;99922.78;10417769;28;20080;-81
2022/06/08 02:41:39;;;;;;;10.73;4.55;;;;;;;20.26;68.56;99972.00;10417635;28;20044;-81
2022/06/08 02:47:10;;;;;;;21.23;5.47;;;;;;;20.61;68.12;99958.38;10420053;28;20577;-81
2022/06/08 02:52:23;;;;;;;17.92;4.78;;;;;;;20.35;65.50;99800.63;10419138;28;20041;-81
2022/06/08 02:58:03;;;;;;;8.50;4.47;;;;;;;22.98;61.81;99953.03;10419808;28;20045;-81
2022/06/08 03:03:25;;;;;;;13.27;5.35;;;;;;;24.42;58.22;99965.41;10398596;28;20288;-81
2022/06/08 03:09:00;;;;;;;30.40;6.65;;;;;;;25.72;56.12;99967.50;10418413;28;20552;-84
2022/06/08 03:14:10;;;;;;;18.00;5.80;;;;;;;25.86;53.48;99967.75;10415418;28;20049;-81
2022/06/08 03:19:11;;;;;;;18.40;4.60;;;;;;;26.43;53.50;99938.31;10419318;28;20060;-81
2022/06/08 03:24:13;;;;;;;12.50;4.82;;;;;;;26.56;51.89;99890.56;10417976;28;20053;-80
2022/06/08 03:29:14;;;;;;;12.45;5.13;;;;;;;27.48;50.14;99917.78;10417232;28;20532;-80
2022/06/08 03:34:15;;;;;;;18.67;4.57;;;;;;;28.41;48.06;99914.66;10417662;28;20041;-82
2022/06/08 03:39:16;;;;;;;9.43;3.97;;;;;;;28.10;47.00;99799.59;10410187;28;20045;-81
2022/06/08 03:44:17;;;;;;;11.23;5.30;;;;;;;29.58;45.41;99967.31;10385445;28;20081;-84
2022/06/08 03:49:19;;;;;;;15.35;4.35;;;;;;;29.35;45.97;99965.59;10376866;28;20073;-81
2022/06/08 03:54:24;;;;;;;12.05;4.20;;;;;;;29.61;44.48;99982.31;10376191;28;20088;-82
2022/06/08 03:59:25;;;;;;;7.55;3.45;;;;;;;29.96;44.38;99972.59;10385697;28;20084;-81
2022/06/08 04:04:26;;;;;;;10.00;3.43;;;;;;;30.47;43.18;99965.19;10402703;28;20076;-81
2022/06/08 04:09:27;;;;;;;9.32;3.70;;;;;;;30.53;40.66;99936.53;10416340;28;20128;-81
2022/06/08 04:14:27;;;;;;;8.15;3.70;;;;;;;31.41;38.17;99962.59;10416221;28;20045;-86
2022/06/08 04:19:30;;;;;;;8.68;3.55;;;;;;;30.61;35.20;99823.41;10392242;28;20076;-83
2022/06/08 04:24:31;;;;;;;18.83;5.97;;;;;;;31.68;33.74;99967.88;10398050;28;20060;-80
2022/06/08 04:29:31;;;;;;;10.43;6.50;;;;;;;31.14;32.56;99948.75;10400935;28;20135;-82
2022/06/08 04:34:32;;;;;;;12.55;9.88;;;;;;;30.21;31.85;99869.91;10393712;28;20049;-82
2022/06/08 04:39:33;;;;;;;16.25;10.88;;;;;;;30.18;31.62;99918.97;10387983;28;20081;-80
2022/06/08 04:44:33;;;;;;;20.23;12.68;;;;;;;30.11;31.03;99957.75;10414897;28;20446;-77
2022/06/08 04:49:35;;;;;;;31.45;13.40;;;;;;;30.24;31.30;99972.56;10414800;28;20037;-77
2022/06/08 04:54:36;;;;;;;19.55;14.27;;;;;;;30.08;30.80;99930.97;10414511;28;20087;-80
2022/06/08 04:59:37;;;;;;;20.98;14.95;;;;;;;30.42;30.34;99968.03;10414082;28;20033;-78
2022/06/08 05:04:37;;;;;;;40.88;17.05;;;;;;;29.69;30.36;99888.56;10413736;28;20046;-78
2022/06/08 05:09:38;;;;;;;20.42;16.25;;;;;;;29.33;30.84;99889.28;10414066;28;20045;-76
2022/06/08 05:14:39;;;;;;;18.85;14.95;;;;;;;28.85;31.45;99875.13;10413396;28;20045;-77
2022/06/08 05:19:40;;;;;;;21.83;16.13;;;;;;;29.16;31.58;99970.31;10413433;28;20057;-79
2022/06/08 05:24:40;;;;;;;35.80;17.13;;;;;;;28.82;31.12;99966.75;10413617;28;20037;-78
2022/06/08 05:29:41;;;;;;;22.40;16.48;;;;;;;28.29;30.91;99884.22;10414210;28;20124;-78
2022/06/08 05:34:42;;;;;;;19.05;16.08;;;;;;;28.99;30.56;99968.09;10408179;28;20544;-78
2022/06/08 05:39:42;;;;;;;19.80;13.77;;;;;;;28.96;29.92;99955.03;10409883;28;20041;-77
2022/06/08 05:44:43;;;;;;;24.05;12.90;;;;;;;28.99;29.97;99971.66;10411733;28;20030;-79
2022/06/08 05:49:44;;;;;;;21.10;10.75;;;;;;;29.01;30.18;99955.75;10405152;28;20098;-81
2022/06/08 05:54:45;;;;;;;29.85;12.15;;;;;;;29.05;30.67;99956.03;10389455;28;20091;-76
2022/06/08 05:59:45;;;;;;;18.05;9.00;;;;;;;29.12;30.53;99946.28;10381543;28;20046;-81
2022/06/08 06:04:46;;;;;;;20.02;6.03;;;;;;;29.39;30.13;99950.19;10408775;28;20486;-77
2022/06/08 06:09:47;;;;;;;8.48;4.40;;;;;;;29.41;30.57;99956.16;10412395;28;20517;-78
2022/06/08 06:14:48;;;;;;;6.03;4.10;;;;;;;29.51;30.47;99955.97;10393116;28;20400;-78
2022/06/08 06:19:48;;;;;;;5.07;3.08;;;;;;;29.41;30.17;99920.59;10391925;28;20057;-77
2022/06/08 06:24:49;;;;;;;13.20;3.67;;;;;;;29.56;30.37;99923.03;10397391;28;20049;-76
2022/06/08 06:29:51;;;;;;;6.10;2.78;;;;;;;29.46;29.98;99925.13;10394744;28;20038;-78
2022/06/08 06:34:54;;;;;;;14.98;3.08;;;;;;;29.54;29.35;99932.66;10416410;28;20469;-76
2022/06/08 06:39:54;;;;;;;;;;;;;;;30.01;30.16;99936.88;10420464;28;20099;-76
2022/06/08 06:44:55;;;;;;;9.63;3.22;;;;;;;29.46;29.81;99819.22;10420637;28;19971;-78
2022/06/08 06:49:56;;;;;;;13.10;3.50;;;;;;;29.71;29.37;99856.22;10419022;28;20045;-77
2022/06/08 06:54:57;;;;;;;13.20;3.20;;;;;;;30.13;29.15;99932.81;10418517;28;20038;-77
2022/06/08 06:59:58;;;;;;;5.40;2.47;;;;;;;29.54;28.75;99825.91;10416189;28;21399;-77
2022/06/08 07:04:58;;;;;;;11.15;2.90;;;;;;;30.15;29.25;99928.63;10419455;28;20095;-79
2022/06/08 07:09:59;;;;;;;9.73;3.10;;;;;;;29.57;28.84;99817.09;10416678;28;20072;-80
2022/06/08 07:15:00;;;;;;;5.28;2.42;;;;;;;30.39;28.54;99917.41;10417054;28;20045;-76
2022/06/08 07:20:00;;;;;;;6.75;2.60;;;;;;;30.30;28.14;99922.00;10418844;28;20599;-73
2022/06/08 07:25:01;;;;;;;6.85;2.35;;;;;;;29.90;28.43;99831.44;10417470;28;20033;-74
2022/06/08 07:30:04;;;;;;;4.18;2.00;;;;;;;30.41;27.71;99889.69;10418507;28;20048;-76
2022/06/08 07:35:06;;;;;;;14.95;2.78;;;;;;;30.31;28.19;99827.75;10415085;28;20509;-77
2022/06/08 07:40:08;;;;;;;6.63;2.40;;;;;;;29.96;26.97;99777.34;10417547;28;20049;-75
2022/06/08 07:45:10;;;;;;;8.70;2.63;;;;;;;30.88;26.72;99912.94;10415897;28;20413;-77
2022/06/08 07:50:11;;;;;;;10.45;2.40;;;;;;;30.67;26.49;99846.81;10416723;28;20042;-74
2022/06/08 07:55:12;;;;;;;5.90;2.25;;;;;;;30.06;26.02;99718.78;10416286;28;20068;-78
2022/06/08 08:00:13;;;;;;;4.60;2.60;;;;;;;31.11;26.04;99885.44;10416302;28;20069;-75
2022/06/08 08:05:15;;;;;;;5.40;2.10;;;;;;;31.25;26.07;99885.34;10416820;28;20409;-76
2022/06/08 08:10:19;;;;;;;9.07;2.10;;;;;;;31.24;25.26;99873.56;10416090;28;20044;-79
2022/06/08 08:15:20;;;;;;;4.32;2.20;;;;;;;31.38;25.92;99882.53;10416345;28;20523;-74
2022/06/08 08:20:23;;;;;;;5.72;2.08;;;;;;;31.44;25.34;99893.34;10414380;28;20072;-76
2022/06/08 08:25:26;;;;;;;12.70;2.30;;;;;;;31.63;25.07;99874.66;10415424;28;20042;-75
2022/06/08 08:30:28;;;;;;;17.25;2.33;;;;;;;31.14;24.99;99769.56;10430580;28;20072;-74
2022/06/08 08:35:29;;;;;;;11.70;2.28;;;;;;;31.71;25.73;99860.16;10415832;28;20132;-78
2022/06/08 08:40:51;;;;;;;4.78;1.60;;;;;;;31.94;24.38;99862.78;10414702;28;20048;-78
2022/06/08 08:45:52;;;;;;;;;;;;;;;31.81;22.61;99848.84;10415898;28;20393;-77
2022/06/08 08:51:06;;;;;;;9.75;1.88;;;;;;;31.36;25.08;99838.13;10414129;28;19917;-79
2022/06/08 08:56:17;;;;;;;19.70;2.10;;;;;;;31.33;24.45;99807.72;10414601;28;20524;-78
2022/06/08 09:01:28;;;;;;;5.35;1.30;;;;;;;31.45;23.28;99840.06;10430031;28;20497;-73
2022/06/08 09:06:32;;;;;;;9.82;2.08;;;;;;;31.05;23.86;99736.66;10413871;28;20049;-75
2022/06/08 09:11:42;;;;;;;3.90;1.20;;;;;;;30.80;23.29;99724.50;10414045;28;20040;-74
2022/06/08 09:16:46;;;;;;;12.15;1.88;;;;;;;30.66;23.92;99710.06;10386584;28;20120;-76
2022/06/08 09:22:03;;;;;;;7.07;1.70;;;;;;;31.51;23.91;99801.16;10403008;28;20442;-77
2022/06/08 09:27:33;;;;;;;16.40;1.75;;;;;;;31.89;23.79;99827.19;10413622;28;20132;-79
2022/06/08 09:32:51;;;;;;;28.50;2.83;;;;;;;31.55;23.41;99807.63;10413682;28;20493;-83
2022/06/08 09:37:56;;;;;;;11.68;1.85;;;;;;;31.61;23.12;99789.06;10413468;28;20124;-81
2022/06/08 09:43:25;;;;;;;9.73;1.50;;;;;;;31.71;22.45;99794.25;10414037;28;20050;-76
2022/06/08 09:54:12;;;;;;;5.15;1.42;;;;;;;31.75;22.31;99799.91;10412804;28;20045;-76
2022/06/08 09:59:27;;;;;;;10.43;1.77;;;;;;;31.96;22.26;99784.41;10409872;28;20045;-77
2022/06/08 10:04:31;;;;;;;2.42;1.33;;;;;;;31.91;22.57;99808.47;10412915;28;20042;-77
2022/06/08 10:09:49;;;;;;;5.43;1.67;;;;;;;31.81;21.34;99793.91;10404955;28;20053;-82
2022/06/08 10:15:08;;;;;;;14.73;1.90;;;;;;;32.02;22.08;99785.06;10408277;28;20320;-77
2022/06/08 10:20:12;;;;;;;45.95;3.97;;;;;;;31.50;22.80;99678.78;10407278;28;20096;-76
2022/06/08 10:25:21;;;;;;;14.07;1.67;;;;;;;31.87;22.78;99747.06;10413141;28;20085;-76
2022/06/08 10:30:34;;;;;;;8.18;1.50;;;;;;;31.79;21.71;99744.00;10411536;28;20044;-76
2022/06/08 10:35:46;;;;;;;10.48;1.63;;;;;;;31.44;21.22;99750.63;10400155;28;20465;-79
2022/06/08 10:41:00;;;;;;;34.83;2.58;;;;;;;30.99;21.36;99657.56;10377079;28;20041;-75
2022/06/08 10:46:04;;;;;;;63.28;3.42;;;;;;;31.01;22.51;99660.81;10426590;28;20041;-77
2022/06/08 10:51:11;;;;;;;12.63;2.05;;;;;;;31.93;23.23;99745.78;10414036;28;20095;-77
2022/06/08 10:56:23;;;;;;;12.20;1.63;;;;;;;31.66;21.66;99747.72;10419274;28;20048;-77
2022/06/08 11:01:33;;;;;;;18.92;1.98;;;;;;;31.79;23.08;99744.00;10397227;28;20037;-75
2022/06/08 11:07:03;;;;;;;11.80;1.38;;;;;;;31.94;22.03;99737.22;10404559;28;20049;-80
2022/06/08 11:12:20;;;;;;;4.20;0.95;;;;;;;31.91;22.45;99718.63;10410283;28;20037;-76
2022/06/08 11:17:30;;;;;;;2.80;1.00;;;;;;;31.53;21.07;99644.34;10418644;28;20053;-76
2022/06/08 11:22:40;;;;;;;3.03;0.80;;;;;;;31.99;21.25;99717.03;10418380;28;20148;-76
2022/06/08 11:27:41;;;;;;;19.23;1.60;;;;;;;32.03;22.09;99720.72;10417660;28;20038;-78
2022/06/08 11:33:11;;;;;;;14.82;1.90;;;;;;;32.00;20.62;99704.88;10398695;28;20041;-75
2022/06/08 11:38:36;;;;;;;3.63;1.10;;;;;;;31.18;21.52;99614.19;10376299;28;20174;-76
2022/06/08 11:43:41;;;;;;;7.65;1.45;;;;;;;31.83;21.42;99698.28;10404279;28;20389;-78
2022/06/08 11:48:49;;;;;;;5.85;1.27;;;;;;;31.86;22.01;99705.06;10414481;28;20049;-80
2022/06/08 11:53:49;;;;;;;5.50;1.98;;;;;;;31.81;21.92;99675.03;10416744;28;20096;-75
2022/06/08 11:58:57;;;;;;;14.80;1.52;;;;;;;31.94;22.27;99693.25;10405443;28;20030;-79
2022/06/08 12:04:13;;;;;;;3.20;1.20;;;;;;;31.94;21.34;99678.72;10414907;28;20501;-76
2022/06/08 12:09:20;;;;;;;12.35;1.90;;;;;;;31.78;22.09;99653.69;10416300;28;20045;-77
2022/06/08 12:14:28;;;;;;;15.32;6.13;;;;;;;31.86;20.75;99679.53;10415357;28;20052;-77
2022/06/08 12:19:41;;;;;;;11.73;2.58;;;;;;;31.59;22.01;99651.28;10416500;28;20433;-77
2022/06/08 12:24:42;;;;;;;8.73;3.17;;;;;;;31.48;21.55;99639.06;10415374;28;20040;-76
2022/06/08 12:29:59;;;;;;;13.75;2.17;;;;;;;31.78;21.54;99667.44;10415164;28;20424;-81
2022/06/08 12:35:06;;;;;;;4.30;1.10;;;;;;;31.79;22.07;99669.84;10404642;28;20041;-75
2022/06/08 12:40:16;;;;;;;6.57;1.30;;;;;;;31.81;21.70;99662.09;10397664;28;20085;-80
2022/06/08 12:45:34;;;;;;;11.98;2.15;;;;;;;31.55;22.53;99642.09;10410140;28;20049;-77
2022/06/08 12:50:35;;;;;;;12.98;1.95;;;;;;;31.68;22.59;99646.63;10408053;28;20045;-80
2022/06/08 12:55:39;;;;;;;16.17;1.90;;;;;;;31.69;22.78;99650.16;10406383;28;20045;-75
2022/06/08 13:00:53;;;;;;;20.38;1.85;;;;;;;31.76;21.47;99648.53;10401327;28;20064;-78
2022/06/08 13:05:55;;;;;;;8.23;1.40;;;;;;;31.57;22.07;99664.56;10391899;28;20034;-80
2022/06/08 13:11:00;;;;;;;9.33;1.73;;;;;;;31.53;22.37;99664.41;10394828;28;20469;-78
2022/06/08 13:16:04;;;;;;;8.00;1.60;;;;;;;31.52;22.07;99664.72;10391481;28;20058;-79
2022/06/08 13:21:07;;;;;;;19.10;1.70;;;;;;;31.33;22.58;99623.88;10396059;28;20034;-79
2022/06/08 13:26:19;;;;;;;8.45;1.10;;;;;;;31.68;23.14;99649.38;10389574;28;20041;-76
2022/06/08 13:31:23;;;;;;;8.03;1.47;;;;;;;31.55;22.07;99651.16;10395802;28;20051;-80
2022/06/08 13:36:29;;;;;;;8.40;1.30;;;;;;;31.05;22.02;99615.16;10422894;28;20420;-79
2022/06/08 13:41:30;;;;;;;13.27;1.73;;;;;;;30.69;22.31;99556.72;10410866;28;20505;-76
2022/06/08 13:46:33;;;;;;;14.88;2.25;;;;;;;31.21;23.14;99638.22;10391836;28;20049;-79
2022/06/08 13:51:35;;;;;;;9.75;1.63;;;;;;;31.20;23.24;99644.84;10405487;28;20081;-76
2022/06/08 13:56:36;;;;;;;4.13;1.23;;;;;;;30.76;22.93;99560.91;10410851;28;20045;-75
2022/06/08 14:01:38;;;;;;;6.80;1.20;;;;;;;31.06;23.14;99627.75;10413392;28;20042;-78
2022/06/08 14:17:20;;;;;;;7.18;2.05;;;;;;;30.77;23.64;99644.78;10420415;28;20088;-78
2022/06/08 14:22:24;;;;;;;6.68;1.45;;;;;;;30.70;23.79;99656.22;10420871;28;20441;-76
2022/06/08 14:27:25;;;;;;;16.58;2.08;;;;;;;29.38;24.06;99474.41;10421162;28;20053;-68
2022/06/08 14:32:33;;;;;;;22.10;2.15;;;;;;;30.32;24.29;99651.25;10420680;28;20033;-68
2022/06/08 14:37:34;;;;;;;14.20;1.90;;;;;;;30.11;24.71;99637.28;10418867;28;20485;-68
2022/06/08 14:42:35;;;;;;;7.43;1.17;;;;;;;30.29;24.37;99649.16;10420028;28;20038;-68
2022/06/08 14:47:39;;;;;;;7.07;1.40;;;;;;;30.08;24.10;99617.94;10419699;28;20045;-68
2022/06/08 14:52:40;;;;;;;7.10;1.25;;;;;;;30.24;24.42;99662.97;10419605;28;20559;-69
2022/06/08 14:57:44;;;;;;;13.57;1.65;;;;;;;29.93;24.95;99636.38;10419464;28;20126;-68
2022/06/08 15:02:45;;;;;;;26.85;2.67;;;;;;;29.58;25.10;99611.50;10417601;28;20476;-68
2022/06/08 15:07:50;;;;;;;32.03;2.72;;;;;;;29.74;25.23;99653.03;10418601;28;20128;-68
2022/06/08 15:12:51;;;;;;;12.75;2.05;;;;;;;29.67;25.43;99649.91;10418789;28;20041;-68
2022/06/08 15:17:55;;;;;;;37.55;3.20;;;;;;;29.34;25.49;99619.22;10407785;28;20140;-69
2022/06/08 15:22:59;;;;;;;11.48;2.10;;;;;;;29.31;25.80;99660.88;10394071;28;20132;-70
2022/06/08 15:28:06;;;;;;;35.50;2.63;;;;;;;28.93;26.10;99644.78;10389804;28;20053;-70
2022/06/08 15:33:16;;;;;;;31.05;2.50;;;;;;;28.67;26.97;99649.97;10392894;28;20440;-70
2022/06/08 15:38:17;;;;;;;9.93;2.78;;;;;;;28.61;27.06;99660.19;10393831;28;20448;-70
2022/06/08 15:43:18;;;;;;;22.15;2.60;;;;;;;27.91;27.82;99567.59;10391212;28;20095;-71
2022/06/08 15:48:20;;;;;;;10.35;1.60;;;;;;;28.16;27.71;99632.66;10397870;28;20049;-70
2022/06/08 15:53:43;;;;;;;13.95;2.25;;;;;;;28.31;27.69;99674.44;10394259;28;20400;-70
2022/06/08 15:58:46;;;;;;;64.65;4.03;;;;;;;27.47;28.31;99571.66;10400045;28;20047;-70
2022/06/08 16:03:48;;;;;;;88.97;6.30;;;;;;;27.24;28.42;99563.28;10391505;28;20044;-69
2022/06/08 16:08:48;;;;;;;35.80;3.05;;;;;;;27.74;28.74;99667.22;10403143;28;20057;-69
2022/06/08 16:13:50;;;;;;;29.70;2.47;;;;;;;27.44;29.19;99651.34;10415764;28;20132;-70
2022/06/08 16:18:51;;;;;;;22.25;2.42;;;;;;;27.35;29.64;99661.31;10415528;28;20505;-70
2022/06/08 16:23:52;;;;;;;23.17;3.97;;;;;;;27.10;29.83;99671.41;10415816;28;20080;-69
2022/06/08 16:28:54;;;;;;;28.10;5.05;;;;;;;26.89;30.43;99667.34;10387667;28;20041;-69
2022/06/08 16:33:55;;;;;;;94.82;9.38;;;;;;;26.58;31.15;99662.31;10374617;28;20077;-70
2022/06/08 16:38:56;;;;;;;34.58;5.80;;;;;;;26.36;31.31;99663.59;10390895;28;20052;-69
2022/06/08 16:43:56;;;;;;;42.20;6.57;;;;;;;26.17;31.62;99679.88;10391090;28;20049;-72
2022/06/08 16:48:57;;;;;;;14.60;3.30;;;;;;;25.95;32.02;99685.78;10392447;28;20049;-69
2022/06/08 16:53:58;;;;;;;30.27;3.10;;;;;;;25.77;32.27;99683.75;10387427;28;20056;-69
2022/06/08 17:04:18;;;;;;;13.30;2.72;;;;;;;25.33;33.76;99705.53;10390415;28;20040;-69
2022/06/08 17:09:19;;;;;;;22.23;3.50;;;;;;;24.94;33.76;99682.59;10403837;28;20055;-69
2022/06/08 17:14:21;;;;;;;31.55;4.35;;;;;;;24.26;34.95;99608.97;10429414;28;20057;-69
2022/06/08 17:19:24;;;;;;;28.15;4.97;;;;;;;24.71;35.00;99718.56;10413890;28;20080;-69
2022/06/08 17:24:25;;;;;;;12.88;3.25;;;;;;;24.49;35.10;99721.63;10411389;28;20140;-69
2022/06/08 17:29:27;;;;;;;11.80;2.80;;;;;;;24.21;35.94;99717.56;10409781;28;20038;-69
2022/06/08 17:34:28;;;;;;;7.03;3.05;;;;;;;24.27;35.96;99732.75;10410716;28;20412;-71
2022/06/08 17:39:29;;;;;;;7.10;2.63;;;;;;;24.17;36.02;99732.75;10403425;28;20052;-70
2022/06/08 17:44:30;;;;;;;12.00;2.80;;;;;;;24.09;36.99;99753.13;10401869;28;20045;-70
2022/06/08 17:49:31;;;;;;;10.50;2.05;;;;;;;24.02;36.95;99747.13;10410330;28;20045;-70
2022/06/08 17:54:33;;;;;;;11.52;2.40;;;;;;;23.90;37.40;99744.69;10395116;28;20057;-69
2022/06/08 17:59:34;;;;;;;7.72;1.95;;;;;;;23.73;37.90;99753.09;10410937;28;20064;-68
2022/06/08 18:16:27;;;;;;;11.23;3.40;;;;;;;23.07;39.07;99751.00;10394432;28;20404;-69
2022/06/08 18:21:28;;;;;;;6.03;2.00;;;;;;;22.94;39.62;99759.56;10411488;28;20041;-71
2022/06/08 18:26:29;;;;;;;9.23;1.98;;;;;;;22.92;39.57;99769.88;10370711;28;20049;-71
2022/06/08 18:31:30;;;;;;;11.82;1.80;;;;;;;22.70;39.82;99756.47;10370540;28;20129;-69
2022/06/08 18:36:31;;;;;;;6.53;1.45;;;;;;;22.12;40.14;99686.00;10368446;28;20050;-70
2022/06/08 18:41:32;;;;;;;6.03;1.40;;;;;;;22.32;40.41;99748.41;10385938;28;20042;-71
2022/06/08 18:46:32;;;;;;;4.13;1.00;;;;;;;21.78;40.43;99686.28;10407231;28;20041;-70
2022/06/08 18:51:33;;;;;;;3.28;1.23;;;;;;;21.61;40.65;99682.91;10426651;28;20045;-72
2022/06/08 18:56:34;;;;;;;5.32;1.23;;;;;;;22.13;40.71;99774.19;10410567;28;20122;-71
2022/06/08 19:01:35;;;;;;;5.20;1.10;;;;;;;21.86;40.84;99749.88;10416103;28;20179;-71
2022/06/08 19:06:36;;;;;;;13.80;1.00;;;;;;;21.97;40.78;99777.84;10418811;28;20034;-72
2022/06/08 19:11:38;;;;;;;5.75;1.02;;;;;;;21.61;41.09;99753.97;10445618;28;20048;-72
2022/06/08 19:16:38;;;;;;;3.75;0.93;;;;;;;21.83;41.44;99783.66;10494972;28;20065;-72
2022/06/08 19:21:40;;;;;;;5.97;1.17;;;;;;;21.72;41.72;99764.88;10470007;28;20044;-73
2022/06/08 19:26:41;;;;;;;3.55;1.00;;;;;;;21.69;42.08;99771.63;10482744;28;20049;-72
2022/06/08 19:31:42;;;;;;;3.22;0.90;;;;;;;21.55;41.75;99751.47;10468181;28;20131;-73
2022/06/08 19:36:48;;;;;;;6.53;1.20;;;;;;;20.44;42.76;99569.81;10457451;28;20143;-73
2022/06/08 19:41:54;;;;;;;3.42;1.10;;;;;;;21.64;42.06;99768.88;10438071;28;20037;-72
2022/06/08 19:46:56;;;;;;;4.18;0.80;;;;;;;20.98;42.07;99652.78;10455033;28;20044;-72
2022/06/08 19:51:56;;;;;;;3.08;0.90;;;;;;;21.40;42.49;99725.94;10467294;28;20041;-73
2022/06/08 19:56:57;;;;;;;3.30;0.80;;;;;;;21.43;42.27;99749.75;10491918;28;20457;-73
2022/06/08 20:01:58;;;;;;;4.53;1.23;;;;;;;21.35;42.40;99739.34;10468035;28;20407;-73
2022/06/08 20:06:59;;;;;;;7.72;1.10;;;;;;;21.42;42.79;99741.91;10461402;28;20049;-72
2022/06/08 20:12:00;;;;;;;9.10;0.98;;;;;;;21.35;43.51;99750.16;10498252;28;20036;-72
2022/06/08 20:17:02;;;;;;;5.65;0.90;;;;;;;20.65;43.18;99632.16;10499611;28;20528;-72
2022/06/08 20:22:03;;;;;;;7.10;0.90;;;;;;;21.28;43.91;99733.34;10499090;28;20111;-72
2022/06/08 20:27:06;;;;;;;2.78;0.90;;;;;;;21.04;44.28;99688.78;10498407;28;20082;-72
2022/06/08 20:32:07;;;;;;;5.32;0.93;;;;;;;21.24;44.47;99726.81;10497831;28;20047;-72
2022/06/08 20:37:08;;;;;;;5.60;1.00;;;;;;;21.17;44.62;99726.19;10498770;28;20048;-72
2022/06/08 20:42:11;;;;;;;4.65;0.68;;;;;;;21.11;44.94;99717.19;10498259;28;20040;-72
2022/06/08 20:47:13;;;;;;;2.17;0.80;;;;;;;21.03;45.19;99728.47;10497315;28;20067;-72
2022/06/08 20:52:19;;;;;;;1.65;0.75;;;;;;;21.03;46.14;99724.91;10497549;28;20043;-73
2022/06/08 20:57:19;;;;;;;4.75;1.08;;;;;;;20.93;45.88;99722.91;10496889;28;20119;-71
2022/06/08 21:02:25;;;;;;;3.20;0.80;;;;;;;20.70;46.78;99686.19;10461264;28;20407;-73
2022/06/08 21:07:27;;;;;;;2.35;0.95;;;;;;;20.77;46.38;99719.22;10412976;28;20052;-73
2022/06/08 21:12:28;;;;;;;6.43;0.90;;;;;;;20.02;46.22;99586.56;10414164;28;20041;-72
2022/06/08 21:17:28;;;;;;;3.72;0.93;;;;;;;20.18;46.68;99616.41;10414094;28;20041;-71
2022/06/08 21:22:29;;;;;;;5.13;1.00;;;;;;;20.75;46.56;99700.56;10412713;28;20072;-72
2022/06/08 21:27:30;;;;;;;3.28;1.23;;;;;;;20.86;46.68;99709.63;10413474;28;20047;-73
2022/06/08 21:32:31;;;;;;;7.03;1.10;;;;;;;20.71;47.20;99687.84;10413863;28;20045;-72
2022/06/08 21:37:32;;;;;;;5.90;1.10;;;;;;;20.75;47.46;99710.56;10413044;28;20033;-72
2022/06/08 21:42:33;;;;;;;6.43;1.40;;;;;;;20.67;48.02;99708.28;10413487;28;20041;-71
2022/06/08 21:47:33;;;;;;;2.45;0.70;;;;;;;20.45;47.85;99673.97;10413208;28;20037;-71
2022/06/08 21:52:35;;;;;;;4.65;0.93;;;;;;;20.72;47.62;99702.94;10428893;28;20091;-72
2022/06/08 21:57:37;;;;;;;2.58;0.90;;;;;;;20.82;47.61;99705.81;10413203;28;20045;-72
2022/06/08 22:02:38;;;;;;;4.72;0.90;;;;;;;20.91;47.85;99698.03;10412575;28;20045;-72
2022/06/08 22:07:38;;;;;;;5.22;1.70;;;;;;;20.76;47.80;99693.31;10413161;28;20033;-72
2022/06/08 22:12:40;;;;;;;4.07;1.23;;;;;;;20.56;48.59;99699.25;10412959;28;20119;-73
2022/06/08 22:17:40;;;;;;;5.82;1.55;;;;;;;20.43;49.65;99703.09;10413319;28;20504;-72
2022/06/08 22:22:41;;;;;;;5.15;1.30;;;;;;;19.77;50.45;99629.28;10411936;28;20049;-72
2022/06/08 22:27:42;;;;;;;4.78;1.10;;;;;;;19.35;50.90;99584.72;10412581;28;20492;-72
2022/06/08 22:32:48;;;;;;;3.38;1.02;;;;;;;19.32;50.22;99597.81;10412599;28;20073;-73
2022/06/08 22:37:48;;;;;;;6.00;1.30;;;;;;;19.90;50.28;99690.97;10420112;28;20037;-72
2022/06/08 22:42:50;;;;;;;7.40;1.50;;;;;;;19.28;51.48;99594.81;10432455;28;20472;-72
2022/06/08 22:47:52;;;;;;;7.30;1.17;;;;;;;19.92;51.65;99696.09;10460716;28;20503;-72
2022/06/08 22:52:54;;;;;;;15.70;1.65;;;;;;;19.82;52.04;99691.38;10461024;28;20040;-72
2022/06/08 22:57:54;;;;;;;8.45;1.73;;;;;;;19.83;52.47;99712.69;10459980;28;20051;-72
2022/06/08 23:02:57;;;;;;;10.48;1.85;;;;;;;19.66;52.94;99709.16;10461015;28;20051;-72
2022/06/08 23:07:58;;;;;;;11.75;3.13;;;;;;;19.07;53.68;99623.25;10460928;28;20049;-72
2022/06/08 23:12:59;;;;;;;8.07;2.42;;;;;;;19.33;54.64;99658.72;10459894;28;20064;-72
2022/06/08 23:23:39;;;;;;;8.23;2.13;;;;;;;18.85;55.16;99611.53;10332017;28;20050;-72
2022/06/08 23:28:40;;;;;;;10.00;2.60;;;;;;;18.75;55.83;99595.19;10430020;28;20057;-72
2022/06/08 23:33:41;;;;;;;8.48;2.20;;;;;;;19.32;56.66;99709.03;10459613;28;20052;-72
2022/06/08 23:38:42;;;;;;;3.97;1.67;;;;;;;19.22;57.39;99699.97;10458627;28;20033;-72
2022/06/08 23:43:43;;;;;;;5.47;1.80;;;;;;;18.87;57.70;99644.38;10459553;28;20041;-72
2022/06/08 23:48:43;;;;;;;10.63;2.22;;;;;;;18.40;57.45;99570.00;10457272;28;20048;-72
2022/06/08 23:53:47;;;;;;;5.93;1.50;;;;;;;19.19;57.98;99689.69;10458127;28;20041;-73
2022/06/08 23:58:49;;;;;;;12.93;1.80;;;;;;;19.32;57.63;99695.56;10458863;28;20072;-72
